createdAt,value
2017-08-15T00:00:11.489Z,-4.06
2017-08-15T00:00:59.582Z,-4.06
2017-08-15T00:01:48.562Z,-4.06
2017-08-15T00:02:36.563Z,-4.06
2017-08-15T00:03:24.603Z,-4.06
2017-08-15T00:04:13.779Z,-4.06
2017-08-15T00:05:01.750Z,-4.06
2017-08-15T00:05:49.820Z,-4.06
2017-08-15T00:06:38.564Z,-4.06
2017-08-15T00:07:26.659Z,-4.06
2017-08-15T00:08:14.689Z,-4.06
2017-08-15T00:09:04.021Z,-4.06
2017-08-15T00:09:51.941Z,-4.06
2017-08-15T00:10:40.094Z,-4.06
2017-08-15T00:11:27.850Z,-4.06
2017-08-15T00:12:15.905Z,-4.06
2017-08-15T00:13:10.248Z,-4.06
2017-08-15T00:13:59.119Z,-4.07
2017-08-15T00:14:47.162Z,-4.07
2017-08-15T00:15:41.440Z,-4.06
2017-08-15T00:16:29.033Z,-4.07
2017-08-15T00:17:18.398Z,-4.07
2017-08-15T00:18:06.547Z,-4.07
2017-08-15T00:19:00.433Z,-4.06
2017-08-15T00:19:48.613Z,-4.07
2017-08-15T00:20:36.609Z,-4.07
2017-08-15T00:21:25.773Z,-4.06
2017-08-15T00:22:13.694Z,-4.06
2017-08-15T00:23:01.494Z,-4.06
2017-08-15T00:23:50.513Z,-4.06
2017-08-15T00:24:38.525Z,-4.06
2017-08-15T00:25:27.967Z,-4.06
2017-08-15T00:26:16.023Z,-4.06
2017-08-15T00:27:09.934Z,-4.07
2017-08-15T00:28:04.995Z,-4.07
2017-08-15T00:28:53.096Z,-4.07
2017-08-15T00:29:41.049Z,-4.07
2017-08-15T00:30:30.239Z,-4.07
2017-08-15T00:31:17.880Z,-4.07
2017-08-15T00:32:06.040Z,-4.07
2017-08-15T00:32:55.153Z,-4.07
2017-08-15T00:33:43.072Z,-4.07
2017-08-15T00:34:31.161Z,-4.07
2017-08-15T00:35:20.318Z,-4.07
2017-08-15T00:36:08.446Z,-4.07
2017-08-15T00:36:56.366Z,-4.07
2017-08-15T00:37:44.532Z,-4.07
2017-08-15T00:38:32.594Z,-4.07
2017-08-15T00:39:20.341Z,-4.07
2017-08-15T00:40:08.781Z,-4.07
2017-08-15T00:41:02.476Z,-4.07
2017-08-15T00:41:50.511Z,-4.07
2017-08-15T00:42:38.603Z,-4.07
2017-08-15T00:43:27.607Z,-4.07
2017-08-15T00:44:15.601Z,-4.07
2017-08-15T00:45:03.910Z,-4.07
2017-08-15T00:45:52.774Z,-4.07
2017-08-15T00:46:41.090Z,-4.07
2017-08-15T00:47:28.906Z,-4.07
2017-08-15T00:48:17.922Z,-4.07
2017-08-15T00:49:05.899Z,-4.07
2017-08-15T00:49:54.104Z,-4.07
2017-08-15T00:50:42.342Z,-4.07
2017-08-15T00:51:31.128Z,-4.07
2017-08-15T00:52:19.163Z,-4.07
2017-08-15T00:53:08.415Z,-4.07
2017-08-15T00:53:57.446Z,-4.07
2017-08-15T00:54:46.399Z,-4.07
2017-08-15T00:55:34.672Z,-4.07
2017-08-15T00:56:23.390Z,-4.07
2017-08-15T00:57:11.664Z,-4.07
2017-08-15T00:57:59.719Z,-4.07
2017-08-15T00:58:47.436Z,-4.07
2017-08-15T00:59:36.489Z,-4.07
2017-08-15T01:00:24.520Z,-4.07
2017-08-15T01:01:13.777Z,-4.07
2017-08-15T01:02:07.777Z,-4.07
2017-08-15T01:03:07.676Z,-4.07
2017-08-15T01:04:02.164Z,-4.07
2017-08-15T01:05:01.834Z,-4.07
2017-08-15T01:05:56.818Z,-4.07
2017-08-15T01:06:56.866Z,-4.07
2017-08-15T01:07:51.061Z,-4.07
2017-08-15T01:08:50.916Z,-4.07
2017-08-15T01:09:46.421Z,-4.07
2017-08-15T01:10:41.129Z,-4.07
2017-08-15T01:11:41.015Z,-4.07
2017-08-15T01:12:36.299Z,-4.07
2017-08-15T01:13:36.245Z,-4.07
2017-08-15T01:14:36.115Z,-4.07
2017-08-15T01:15:36.481Z,-4.07
2017-08-15T01:16:30.409Z,-4.07
2017-08-15T01:17:30.633Z,-4.07
2017-08-15T01:18:25.668Z,-4.07
2017-08-15T01:19:20.530Z,-4.07
2017-08-15T01:20:21.665Z,-4.07
2017-08-15T01:21:21.718Z,-4.07
2017-08-15T01:22:16.667Z,-4.07
2017-08-15T01:23:11.712Z,-4.07
2017-08-15T01:24:05.775Z,-4.07
2017-08-15T01:24:53.905Z,-4.07
2017-08-15T01:25:41.924Z,-4.07
2017-08-15T01:26:29.919Z,-4.07
2017-08-15T01:27:18.733Z,-4.07
2017-08-15T01:28:06.766Z,-4.07
2017-08-15T01:28:54.746Z,-4.07
2017-08-15T01:29:43.869Z,-4.07
2017-08-15T01:30:32.162Z,-4.07
2017-08-15T01:31:31.885Z,-4.07
2017-08-15T01:32:32.041Z,-4.07
2017-08-15T01:33:26.011Z,-4.07
2017-08-15T01:34:26.094Z,-4.07
2017-08-15T01:35:21.268Z,-4.07
2017-08-15T01:36:15.134Z,-4.07
2017-08-15T01:37:10.474Z,-4.07
2017-08-15T01:38:04.444Z,-4.07
2017-08-15T01:38:58.279Z,-4.07
2017-08-15T01:39:59.537Z,-4.07
2017-08-15T01:41:00.633Z,-4.07
2017-08-15T01:41:49.513Z,-4.07
2017-08-15T01:42:44.520Z,-4.07
2017-08-15T01:43:33.763Z,-4.07
2017-08-15T01:44:22.436Z,-4.07
2017-08-15T01:45:16.534Z,-4.07
2017-08-15T01:46:05.542Z,-4.07
2017-08-15T01:46:53.759Z,-4.07
2017-08-15T01:47:42.620Z,-4.07
2017-08-15T01:48:37.621Z,-4.07
2017-08-15T01:49:37.683Z,-4.07
2017-08-15T01:50:26.901Z,-4.07
2017-08-15T01:51:14.785Z,-4.07
2017-08-15T01:52:02.917Z,-4.07
2017-08-15T01:52:50.881Z,-4.07
2017-08-15T01:53:38.965Z,-4.07
2017-08-15T01:54:34.164Z,-4.07
2017-08-15T01:55:22.086Z,-4.07
2017-08-15T01:56:10.033Z,-4.07
2017-08-15T01:56:58.079Z,-4.07
2017-08-15T01:57:47.317Z,-4.07
2017-08-15T01:58:41.243Z,-4.07
2017-08-15T01:59:29.588Z,-4.07
2017-08-15T02:00:17.554Z,-4.07
2017-08-15T02:01:05.267Z,-4.07
2017-08-15T02:02:06.695Z,-4.07
2017-08-15T02:03:06.457Z,-4.07
2017-08-15T02:03:54.439Z,-4.07
2017-08-15T02:04:42.487Z,-4.07
2017-08-15T02:05:30.903Z,-4.07
2017-08-15T02:06:19.564Z,-4.07
2017-08-15T02:07:13.619Z,-4.07
2017-08-15T02:08:02.751Z,-4.07
2017-08-15T02:08:50.717Z,-4.07
2017-08-15T02:09:38.776Z,-4.07
2017-08-15T02:10:27.092Z,-4.07
2017-08-15T02:11:14.853Z,-4.07
2017-08-15T02:12:02.865Z,-4.07
2017-08-15T02:12:51.066Z,-4.07
2017-08-15T02:13:39.012Z,-4.07
2017-08-15T02:14:33.149Z,-4.07
2017-08-15T02:15:34.499Z,-4.07
2017-08-15T02:16:23.089Z,-4.07
2017-08-15T02:17:11.231Z,-4.07
2017-08-15T02:18:05.457Z,-4.07
2017-08-15T02:18:54.466Z,-4.07
2017-08-15T02:19:43.285Z,-4.07
2017-08-15T02:20:31.719Z,-4.07
2017-08-15T02:21:20.342Z,-4.07
2017-08-15T02:22:08.637Z,-4.07
2017-08-15T02:22:56.800Z,-4.07
2017-08-15T02:23:44.482Z,-4.07
2017-08-15T02:24:32.816Z,-4.07
2017-08-15T02:25:26.855Z,-4.07
2017-08-15T02:26:14.608Z,-4.07
2017-08-15T02:27:02.731Z,-4.07
2017-08-15T02:27:50.717Z,-4.07
2017-08-15T02:28:38.758Z,-4.07
2017-08-15T02:29:26.809Z,-4.07
2017-08-15T02:30:16.127Z,-4.07
2017-08-15T02:31:04.012Z,-4.07
2017-08-15T02:31:51.961Z,-4.07
2017-08-15T02:32:41.044Z,-4.07
2017-08-15T02:33:29.110Z,-4.08
2017-08-15T02:34:17.085Z,-4.08
2017-08-15T02:35:06.365Z,-4.08
2017-08-15T02:35:54.152Z,-4.08
2017-08-15T02:36:42.381Z,-4.08
2017-08-15T02:37:31.160Z,-4.08
2017-08-15T02:38:19.634Z,-4.08
2017-08-15T02:39:07.359Z,-4.08
2017-08-15T02:39:56.463Z,-4.08
2017-08-15T02:40:44.784Z,-4.08
2017-08-15T02:41:32.548Z,-4.08
2017-08-15T02:42:21.552Z,-4.08
2017-08-15T02:43:09.606Z,-4.08
2017-08-15T02:43:57.708Z,-4.08
2017-08-15T02:44:46.720Z,-4.08
2017-08-15T02:45:35.002Z,-4.08
2017-08-15T02:46:22.719Z,-4.08
2017-08-15T02:47:11.996Z,-4.08
2017-08-15T02:48:00.040Z,-4.08
2017-08-15T02:48:47.851Z,-4.08
2017-08-15T02:49:37.069Z,-4.08
2017-08-15T02:50:25.306Z,-4.08
2017-08-15T02:51:13.226Z,-4.08
2017-08-15T02:52:02.067Z,-4.08
2017-08-15T02:52:50.300Z,-4.08
2017-08-15T02:53:38.325Z,-4.08
2017-08-15T02:54:27.159Z,-4.08
2017-08-15T02:55:15.547Z,-4.08
2017-08-15T02:56:03.269Z,-4.08
2017-08-15T02:56:51.559Z,-4.08
2017-08-15T02:57:40.631Z,-4.08
2017-08-15T02:58:28.391Z,-4.08
2017-08-15T02:59:17.758Z,-4.08
2017-08-15T03:00:05.797Z,-4.08
2017-08-15T03:00:53.852Z,-4.08
2017-08-15T03:01:42.912Z,-4.08
2017-08-15T03:02:30.950Z,-4.08
2017-08-15T03:03:18.994Z,-4.08
2017-08-15T03:04:07.996Z,-4.08
2017-08-15T03:04:56.068Z,-4.08
2017-08-15T03:05:44.023Z,-4.08
2017-08-15T03:06:33.182Z,-4.08
2017-08-15T03:07:21.227Z,-4.08
2017-08-15T03:08:09.167Z,-4.08
2017-08-15T03:08:57.239Z,-4.08
2017-08-15T03:09:46.412Z,-4.08
2017-08-15T03:10:34.451Z,-4.08
2017-08-15T03:11:22.431Z,-4.08
2017-08-15T03:12:11.423Z,-4.08
2017-08-15T03:12:59.481Z,-4.08
2017-08-15T03:13:48.581Z,-4.08
2017-08-15T03:14:36.712Z,-4.08
2017-08-15T03:15:24.678Z,-4.08
2017-08-15T03:16:13.762Z,-4.08
2017-08-15T03:17:01.716Z,-4.08
2017-08-15T03:17:49.781Z,-4.08
2017-08-15T03:18:38.784Z,-4.08
2017-08-15T03:19:26.867Z,-4.08
2017-08-15T03:20:14.896Z,-4.08
2017-08-15T03:21:04.009Z,-4.08
2017-08-15T03:21:52.001Z,-4.08
2017-08-15T03:22:40.097Z,-4.08
2017-08-15T03:23:29.050Z,-4.08
2017-08-15T03:24:17.018Z,-4.08
2017-08-15T03:25:05.200Z,-4.08
2017-08-15T03:25:53.327Z,-4.08
2017-08-15T03:26:42.265Z,-4.08
2017-08-15T03:27:30.374Z,-4.08
2017-08-15T03:28:19.287Z,-4.08
2017-08-15T03:29:07.459Z,-4.08
2017-08-15T03:29:55.521Z,-4.08
2017-08-15T03:30:44.488Z,-4.08
2017-08-15T03:31:32.437Z,-4.08
2017-08-15T03:32:20.504Z,-4.08
2017-08-15T03:33:08.596Z,-4.08
2017-08-15T03:33:57.750Z,-4.08
2017-08-15T03:34:45.776Z,-4.08
2017-08-15T03:35:33.813Z,-4.08
2017-08-15T03:36:22.816Z,-4.08
2017-08-15T03:37:10.827Z,-4.08
2017-08-15T03:37:59.861Z,-4.08
2017-08-15T03:38:47.884Z,-4.08
2017-08-15T03:39:35.961Z,-4.08
2017-08-15T03:40:25.198Z,-4.08
2017-08-15T03:41:13.084Z,-4.08
2017-08-15T03:42:01.060Z,-4.08
2017-08-15T03:42:50.193Z,-4.08
2017-08-15T03:43:38.123Z,-4.08
2017-08-15T03:44:26.243Z,-4.08
2017-08-15T03:45:14.945Z,-4.08
2017-08-15T03:46:03.101Z,-4.08
2017-08-15T03:46:51.252Z,-4.08
2017-08-15T03:47:40.065Z,-4.08
2017-08-15T03:48:28.176Z,-4.08
2017-08-15T03:49:16.269Z,-4.08
2017-08-15T03:50:05.553Z,-4.08
2017-08-15T03:50:53.618Z,-4.08
2017-08-15T03:51:41.636Z,-4.08
2017-08-15T03:52:30.675Z,-4.08
2017-08-15T03:53:18.654Z,-4.08
2017-08-15T03:54:06.848Z,-4.08
2017-08-15T03:54:55.821Z,-4.08
2017-08-15T03:55:43.849Z,-4.08
2017-08-15T03:56:31.918Z,-4.08
2017-08-15T03:57:21.014Z,-4.08
2017-08-15T03:58:08.989Z,-4.08
2017-08-15T03:58:57.049Z,-4.08
2017-08-15T03:59:46.109Z,-4.08
2017-08-15T04:00:34.110Z,-4.08
2017-08-15T04:01:22.179Z,-4.08
2017-08-15T04:02:11.222Z,-4.08
2017-08-15T04:02:59.283Z,-4.08
2017-08-15T04:03:47.302Z,-4.08
2017-08-15T04:04:36.305Z,-4.08
2017-08-15T04:05:24.440Z,-4.08
2017-08-15T04:06:13.488Z,-4.08
2017-08-15T04:07:01.602Z,-4.08
2017-08-15T04:07:49.547Z,-4.08
2017-08-15T04:08:38.609Z,-4.09
2017-08-15T04:09:26.679Z,-4.08
2017-08-15T04:10:14.643Z,-4.08
2017-08-15T04:11:03.805Z,-4.08
2017-08-15T04:11:51.853Z,-4.08
2017-08-15T04:12:40.800Z,-4.08
2017-08-15T04:13:28.850Z,-4.08
2017-08-15T04:14:16.964Z,-4.08
2017-08-15T04:15:06.040Z,-4.08
2017-08-15T04:15:53.989Z,-4.08
2017-08-15T04:16:42.090Z,-4.08
2017-08-15T04:17:30.026Z,-4.08
2017-08-15T04:18:19.109Z,-4.08
2017-08-15T04:19:07.224Z,-4.08
2017-08-15T04:19:56.242Z,-4.08
2017-08-15T04:20:44.245Z,-4.08
2017-08-15T04:21:32.332Z,-4.08
2017-08-15T04:22:21.469Z,-4.08
2017-08-15T04:23:09.486Z,-4.08
2017-08-15T04:23:58.552Z,-4.08
2017-08-15T04:24:46.556Z,-4.08
2017-08-15T04:25:34.633Z,-4.08
2017-08-15T04:26:23.566Z,-4.09
2017-08-15T04:27:11.701Z,-4.08
2017-08-15T04:27:59.826Z,-4.09
2017-08-15T04:28:48.753Z,-4.09
2017-08-15T04:29:36.805Z,-4.09
2017-08-15T04:30:25.768Z,-4.09
2017-08-15T04:31:13.916Z,-4.08
2017-08-15T04:32:01.881Z,-4.08
2017-08-15T04:32:51.022Z,-4.08
2017-08-15T04:33:39.086Z,-4.08
2017-08-15T04:34:27.085Z,-4.08
2017-08-15T04:35:16.081Z,-4.08
2017-08-15T04:36:04.167Z,-4.08
2017-08-15T04:36:53.295Z,-4.08
2017-08-15T04:37:41.262Z,-4.08
2017-08-15T04:38:29.251Z,-4.08
2017-08-15T04:39:18.375Z,-4.08
2017-08-15T04:40:06.493Z,-4.08
2017-08-15T04:40:54.405Z,-4.08
2017-08-15T04:41:42.463Z,-4.08
2017-08-15T04:42:31.521Z,-4.08
2017-08-15T04:43:19.554Z,-4.08
2017-08-15T04:44:08.685Z,-4.08
2017-08-15T04:44:56.613Z,-4.08
2017-08-15T04:45:44.767Z,-4.08
2017-08-15T04:46:32.741Z,-4.08
2017-08-15T04:47:26.451Z,-4.08
2017-08-15T04:48:14.762Z,-4.08
2017-08-15T04:49:08.693Z,-4.08
2017-08-15T04:49:56.896Z,-4.08
2017-08-15T04:50:44.829Z,-4.08
2017-08-15T04:51:32.971Z,-4.08
2017-08-15T04:52:20.951Z,-4.08
2017-08-15T04:53:09.867Z,-4.08
2017-08-15T04:53:58.029Z,-4.08
2017-08-15T04:54:46.263Z,-4.08
2017-08-15T04:55:40.944Z,-4.08
2017-08-15T04:56:35.262Z,-4.08
2017-08-15T04:57:24.131Z,-4.08
2017-08-15T04:58:13.087Z,-4.08
2017-08-15T04:59:01.518Z,-4.08
2017-08-15T04:59:49.440Z,-4.08
2017-08-15T05:00:37.595Z,-4.08
2017-08-15T05:01:26.547Z,-4.08
2017-08-15T05:02:14.584Z,-4.08
2017-08-15T05:03:08.572Z,-4.08
2017-08-15T05:03:56.693Z,-4.08
2017-08-15T05:04:45.850Z,-4.08
2017-08-15T05:05:34.781Z,-4.08
2017-08-15T05:06:28.822Z,-4.08
2017-08-15T05:07:17.762Z,-4.08
2017-08-15T05:08:05.897Z,-4.08
2017-08-15T05:08:54.036Z,-4.08
2017-08-15T05:09:43.029Z,-4.08
2017-08-15T05:10:31.153Z,-4.08
2017-08-15T05:11:20.119Z,-4.08
2017-08-15T05:12:09.189Z,-4.08
2017-08-15T05:13:03.188Z,-4.08
2017-08-15T05:13:52.165Z,-4.08
2017-08-15T05:14:46.239Z,-4.08
2017-08-15T05:15:41.425Z,-4.08
2017-08-15T05:16:41.320Z,-4.07
2017-08-15T05:17:41.372Z,-4.07
2017-08-15T05:18:41.485Z,-4.07
2017-08-15T05:19:47.513Z,-4.07
2017-08-15T05:20:42.575Z,-4.07
2017-08-15T05:21:31.641Z,-4.07
2017-08-15T05:22:25.617Z,-4.07
2017-08-15T05:23:25.559Z,-4.07
2017-08-15T05:24:13.724Z,-4.07
2017-08-15T05:25:07.675Z,-4.07
2017-08-15T05:25:55.767Z,-4.07
2017-08-15T05:26:44.859Z,-4.07
2017-08-15T05:27:32.842Z,-4.07
2017-08-15T05:28:26.870Z,-4.07
2017-08-15T05:29:26.933Z,-4.07
2017-08-15T05:30:21.972Z,-4.07
2017-08-15T05:31:17.116Z,-4.06
2017-08-15T05:32:11.052Z,-4.06
2017-08-15T05:33:11.093Z,-4.06
2017-08-15T05:34:06.185Z,-4.06
2017-08-15T05:34:55.207Z,-4.06
2017-08-15T05:35:49.302Z,-4.06
2017-08-15T05:36:43.345Z,-4.06
2017-08-15T05:37:32.397Z,-4.05
2017-08-15T05:38:27.475Z,-4.05
2017-08-15T05:39:27.408Z,-4.05
2017-08-15T05:40:22.431Z,-4.04
2017-08-15T05:41:17.457Z,-4.04
2017-08-15T05:42:06.551Z,-4.04
2017-08-15T05:43:06.647Z,-4.04
2017-08-15T05:44:06.754Z,-4.04
2017-08-15T05:44:55.646Z,-4.03
2017-08-15T05:45:44.782Z,-4.03
2017-08-15T05:46:44.825Z,-4.04
2017-08-15T05:47:38.936Z,-4.04
2017-08-15T05:48:32.837Z,-4.04
2017-08-15T05:49:32.900Z,-4.05
2017-08-15T05:50:21.074Z,-4.05
2017-08-15T05:51:15.986Z,-4.05
2017-08-15T05:52:16.026Z,-4.05
2017-08-15T05:53:05.110Z,-4.05
2017-08-15T05:53:59.187Z,-4.05
2017-08-15T05:54:59.293Z,-4.05
2017-08-15T05:55:53.246Z,-4.05
2017-08-15T05:56:48.226Z,-4.05
2017-08-15T05:57:43.322Z,-4.05
2017-08-15T05:58:37.410Z,-4.05
2017-08-15T05:59:25.525Z,-4.05
2017-08-15T06:00:14.579Z,-4.06
2017-08-15T06:01:09.570Z,-4.06
2017-08-15T06:01:57.616Z,-4.06
2017-08-15T06:02:51.628Z,-4.06
2017-08-15T06:03:45.766Z,-4.06
2017-08-15T06:04:45.765Z,-4.07
2017-08-15T06:05:34.752Z,-4.06
2017-08-15T06:06:23.892Z,-4.06
2017-08-15T06:07:17.948Z,-4.06
2017-08-15T06:08:05.978Z,-4.06
2017-08-15T06:09:01.003Z,-4.05
2017-08-15T06:09:50.041Z,-4.05
2017-08-15T06:10:44.101Z,-4.05
2017-08-15T06:11:38.222Z,-4.04
2017-08-15T06:12:33.233Z,-4.04
2017-08-15T06:13:27.277Z,-4.03
2017-08-15T06:14:21.365Z,-4.03
2017-08-15T06:15:10.344Z,-4.03
2017-08-15T06:15:59.484Z,-4.03
2017-08-15T06:16:54.468Z,-4.03
2017-08-15T06:17:54.540Z,-4.03
2017-08-15T06:18:49.561Z,-4.03
2017-08-15T06:19:43.711Z,-4.03
2017-08-15T06:20:37.705Z,-4.03
2017-08-15T06:21:31.710Z,-4.03
2017-08-15T06:22:26.848Z,-4.04
2017-08-15T06:23:20.797Z,-4.04
2017-08-15T06:24:09.866Z,-4.03
2017-08-15T06:25:10.011Z,-4.03
2017-08-15T06:26:09.982Z,-4.03
2017-08-15T06:27:04.081Z,-4.02
2017-08-15T06:27:58.057Z,-4.03
2017-08-15T06:28:46.109Z,-4.03
2017-08-15T06:29:40.170Z,-4.03
2017-08-15T06:30:29.280Z,-4.04
2017-08-15T06:31:23.294Z,-4.04
2017-08-15T06:32:17.339Z,-4.04
2017-08-15T06:33:06.421Z,-4.03
2017-08-15T06:33:55.519Z,-4.04
2017-08-15T06:34:49.484Z,-4.04
2017-08-15T06:35:38.660Z,-4.04
2017-08-15T06:36:27.596Z,-4.04
2017-08-15T06:37:22.732Z,-4.04
2017-08-15T06:38:17.761Z,-4.04
2017-08-15T06:39:11.882Z,-4.04
2017-08-15T06:40:00.934Z,-4.04
2017-08-15T06:40:49.042Z,-4.04
2017-08-15T06:41:49.047Z,-4.04
2017-08-15T06:42:43.078Z,-4.04
2017-08-15T06:43:38.198Z,-4.03
2017-08-15T06:44:32.255Z,-4.02
2017-08-15T06:45:32.280Z,-4.02
2017-08-15T06:46:21.361Z,-4.01
2017-08-15T06:47:10.314Z,-4.01
2017-08-15T06:47:59.456Z,-4.01
2017-08-15T06:48:53.493Z,-4.01
2017-08-15T06:49:47.487Z,-4.01
2017-08-15T06:50:42.583Z,-4.01
2017-08-15T06:51:36.660Z,-4.00
2017-08-15T06:52:30.676Z,-4.00
2017-08-15T06:53:19.771Z,-4.00
2017-08-15T06:54:13.848Z,-4.00
2017-08-15T06:55:08.842Z,-3.99
2017-08-15T06:56:04.032Z,-3.99
2017-08-15T06:56:52.959Z,-3.98
2017-08-15T06:57:48.034Z,-3.98
2017-08-15T06:58:42.076Z,-3.97
2017-08-15T06:59:36.132Z,8.24
2017-08-15T07:00:25.171Z,13.06
2017-08-15T07:01:20.443Z,-3.96
2017-08-15T07:02:15.434Z,19.41
2017-08-15T07:03:10.563Z,11.13
2017-08-15T07:04:10.518Z,24.62
2017-08-15T07:05:04.631Z,20.64
2017-08-15T07:05:53.648Z,6.96
2017-08-15T07:06:47.811Z,11.23
2017-08-15T07:07:36.828Z,9.23
2017-08-15T07:08:30.927Z,3.43
2017-08-15T07:09:24.970Z,13.33
2017-08-15T07:10:14.079Z,13.08
2017-08-15T07:11:08.037Z,-3.49
2017-08-15T07:12:02.119Z,-3.08
2017-08-15T07:12:56.244Z,12.26
2017-08-15T07:13:50.214Z,10.87
2017-08-15T07:14:51.360Z,9.87
2017-08-15T07:15:40.393Z,15.09
2017-08-15T07:16:28.401Z,7.90
2017-08-15T07:17:34.459Z,6.45
2017-08-15T07:18:28.708Z,10.21
2017-08-15T07:19:22.559Z,-3.99
2017-08-15T07:20:10.701Z,-3.99
2017-08-15T07:21:04.694Z,-4.00
2017-08-15T07:21:53.684Z,-4.00
2017-08-15T07:22:48.846Z,-4.00
2017-08-15T07:23:37.856Z,-4.01
2017-08-15T07:24:25.862Z,-4.01
2017-08-15T07:25:20.007Z,-4.01
2017-08-15T07:26:15.081Z,-4.02
2017-08-15T07:27:04.162Z,-4.01
2017-08-15T07:28:04.229Z,-4.01
2017-08-15T07:28:53.243Z,-4.01
2017-08-15T07:29:47.377Z,-4.00
2017-08-15T07:30:42.362Z,-4.00
2017-08-15T07:31:42.383Z,-4.00
2017-08-15T07:32:36.514Z,-4.00
2017-08-15T07:33:37.557Z,-4.00
2017-08-15T07:34:26.729Z,-4.00
2017-08-15T07:35:20.695Z,-4.00
2017-08-15T07:36:08.740Z,-3.99
2017-08-15T07:37:02.386Z,-3.99
2017-08-15T07:37:51.904Z,-3.98
2017-08-15T07:38:45.922Z,-1.80
2017-08-15T07:39:39.975Z,-3.99
2017-08-15T07:40:29.059Z,-3.99
2017-08-15T07:41:18.096Z,-1.56
2017-08-15T07:42:12.128Z,-3.98
2017-08-15T07:43:06.176Z,-3.57
2017-08-15T07:44:01.327Z,1.10
2017-08-15T07:44:56.360Z,-1.31
2017-08-15T07:45:50.393Z,-2.36
2017-08-15T07:46:44.407Z,-3.98
2017-08-15T07:47:32.517Z,-0.19
2017-08-15T07:48:21.560Z,0.50
2017-08-15T07:49:10.540Z,-3.98
2017-08-15T07:49:59.705Z,2.62
2017-08-15T07:50:53.736Z,3.01
2017-08-15T07:51:48.832Z,11.99
2017-08-15T07:52:36.905Z,7.66
2017-08-15T07:53:30.978Z,12.41
2017-08-15T07:54:20.034Z,8.31
2017-08-15T07:55:20.079Z,10.02
2017-08-15T07:56:14.169Z,25.45
2017-08-15T07:57:03.140Z,17.08
2017-08-15T07:57:52.238Z,6.86
2017-08-15T07:58:41.317Z,-2.84
2017-08-15T07:59:35.313Z,8.13
2017-08-15T08:00:35.393Z,7.19
2017-08-15T08:01:23.539Z,17.78
2017-08-15T08:02:17.561Z,15.50
2017-08-15T08:03:11.647Z,14.56
2017-08-15T08:03:59.700Z,21.08
2017-08-15T08:04:54.756Z,20.06
2017-08-15T08:05:43.801Z,25.38
2017-08-15T08:06:32.866Z,26.27
2017-08-15T08:07:26.840Z,19.79
2017-08-15T08:08:15.918Z,18.91
2017-08-15T08:09:05.062Z,28.79
2017-08-15T08:09:59.172Z,30.71
2017-08-15T08:10:53.165Z,27.88
2017-08-15T08:11:42.260Z,37.25
2017-08-15T08:12:31.357Z,34.62
2017-08-15T08:13:20.507Z,34.49
2017-08-15T08:14:09.549Z,34.80
2017-08-15T08:14:58.652Z,30.38
2017-08-15T08:15:52.858Z,33.26
2017-08-15T08:16:40.826Z,29.77
2017-08-15T08:17:34.881Z,30.58
2017-08-15T08:18:28.876Z,27.48
2017-08-15T08:19:23.014Z,39.75
2017-08-15T08:20:23.149Z,34.67
2017-08-15T08:21:24.199Z,41.42
2017-08-15T08:22:19.259Z,35.94
2017-08-15T08:23:13.328Z,41.21
2017-08-15T08:24:13.374Z,32.86
2017-08-15T08:25:07.474Z,37.89
2017-08-15T08:25:55.588Z,39.78
2017-08-15T08:26:44.768Z,39.89
2017-08-15T08:27:32.778Z,34.88
2017-08-15T08:28:21.876Z,40.90
2017-08-15T08:29:15.946Z,35.51
2017-08-15T08:30:10.123Z,35.36
2017-08-15T08:30:59.009Z,33.48
2017-08-15T08:31:47.174Z,38.51
2017-08-15T08:32:42.260Z,40.64
2017-08-15T08:33:31.300Z,39.13
2017-08-15T08:34:26.429Z,34.59
2017-08-15T08:35:20.481Z,39.68
2017-08-15T08:36:14.601Z,37.75
2017-08-15T08:37:08.645Z,40.51
2017-08-15T08:37:57.694Z,28.18
2017-08-15T08:38:51.865Z,27.98
2017-08-15T08:39:46.973Z,31.47
2017-08-15T08:40:34.949Z,38.77
2017-08-15T08:41:29.026Z,39.88
2017-08-15T08:42:23.206Z,31.54
2017-08-15T08:43:29.231Z,23.96
2017-08-15T08:44:30.324Z,30.49
2017-08-15T08:45:30.419Z,28.66
2017-08-15T08:46:25.451Z,40.78
2017-08-15T08:47:20.516Z,43.05
2017-08-15T08:48:09.767Z,39.87
2017-08-15T08:49:04.630Z,35.04
2017-08-15T08:49:59.763Z,22.54
2017-08-15T08:50:59.827Z,14.90
2017-08-15T08:51:59.852Z,20.35
2017-08-15T08:52:55.038Z,18.73
2017-08-15T08:53:55.118Z,13.79
2017-08-15T08:54:49.233Z,10.32
2017-08-15T08:55:43.279Z,-3.97
2017-08-15T08:56:38.350Z,-3.98
2017-08-15T08:57:33.374Z,-3.98
2017-08-15T08:58:33.421Z,-3.98
2017-08-15T08:59:22.488Z,4.28
2017-08-15T09:00:17.855Z,-3.98
2017-08-15T09:01:11.762Z,-3.98
2017-08-15T09:02:00.775Z,-3.99
2017-08-15T09:02:54.968Z,-3.99
2017-08-15T09:03:43.016Z,-3.99
2017-08-15T09:04:31.167Z,-3.99
2017-08-15T09:05:25.179Z,-3.99
2017-08-15T09:06:19.137Z,-3.99
2017-08-15T09:07:19.249Z,-3.99
2017-08-15T09:08:13.276Z,-4.00
2017-08-15T09:09:07.469Z,-3.99
2017-08-15T09:10:01.458Z,-4.00
2017-08-15T09:11:01.527Z,-4.00
2017-08-15T09:11:55.536Z,-3.99
2017-08-15T09:12:55.694Z,-4.00
2017-08-15T09:13:44.664Z,-3.99
2017-08-15T09:14:33.768Z,-4.00
2017-08-15T09:15:21.843Z,-4.00
2017-08-15T09:16:16.830Z,-3.99
2017-08-15T09:17:05.993Z,-3.99
2017-08-15T09:18:06.027Z,-3.99
2017-08-15T09:18:55.186Z,-3.99
2017-08-15T09:19:50.165Z,-3.99
2017-08-15T09:20:39.282Z,-3.99
2017-08-15T09:21:33.302Z,-3.98
2017-08-15T09:22:33.369Z,-3.99
2017-08-15T09:23:27.400Z,-3.98
2017-08-15T09:24:27.562Z,-3.99
2017-08-15T09:25:21.559Z,-3.99
2017-08-15T09:26:10.627Z,-3.99
2017-08-15T09:27:05.747Z,-3.99
2017-08-15T09:28:00.814Z,-3.99
2017-08-15T09:29:00.960Z,-3.99
2017-08-15T09:30:01.011Z,-3.99
2017-08-15T09:31:02.131Z,-3.98
2017-08-15T09:32:03.145Z,-3.98
2017-08-15T09:32:58.228Z,-3.98
2017-08-15T09:33:53.313Z,-3.98
2017-08-15T09:34:47.341Z,-3.98
2017-08-15T09:35:41.402Z,-3.98
2017-08-15T09:36:35.425Z,-3.98
2017-08-15T09:37:24.569Z,-3.98
2017-08-15T09:38:12.645Z,-3.97
2017-08-15T09:39:06.708Z,-3.49
2017-08-15T09:40:00.818Z,-3.98
2017-08-15T09:40:55.938Z,9.31
2017-08-15T09:41:44.958Z,-3.73
2017-08-15T09:42:39.140Z,-3.98
2017-08-15T09:43:27.166Z,2.93
2017-08-15T09:44:21.182Z,-3.98
2017-08-15T09:45:16.348Z,-3.98
2017-08-15T09:46:05.344Z,-3.98
2017-08-15T09:46:54.402Z,-3.99
2017-08-15T09:47:48.583Z,-3.98
2017-08-15T09:48:42.546Z,-3.99
2017-08-15T09:49:42.601Z,-3.98
2017-08-15T09:50:30.689Z,-3.98
2017-08-15T09:51:25.808Z,-3.98
2017-08-15T09:52:19.878Z,-1.07
2017-08-15T09:53:20.035Z,-3.99
2017-08-15T09:54:20.058Z,-2.36
2017-08-15T09:55:09.121Z,-3.98
2017-08-15T09:56:03.171Z,-3.98
2017-08-15T09:56:52.273Z,-3.98
2017-08-15T09:57:40.397Z,-3.98
2017-08-15T09:58:34.450Z,-3.98
2017-08-15T09:59:29.505Z,2.54
2017-08-15T10:00:18.719Z,8.48
2017-08-15T10:01:07.621Z,-3.98
2017-08-15T10:02:07.671Z,-2.68
2017-08-15T10:03:07.792Z,-3.98
2017-08-15T10:04:01.931Z,-3.98
2017-08-15T10:04:50.973Z,1.18
2017-08-15T10:05:44.949Z,-3.98
2017-08-15T10:06:45.048Z,-3.99
2017-08-15T10:07:46.199Z,-3.99
2017-08-15T10:08:41.210Z,3.25
2017-08-15T10:09:36.355Z,-3.98
2017-08-15T10:10:24.377Z,-3.98
2017-08-15T10:11:19.495Z,0.86
2017-08-15T10:12:08.543Z,-3.98
2017-08-15T10:13:02.579Z,-3.98
2017-08-15T10:13:51.678Z,-3.98
2017-08-15T10:14:39.809Z,-3.98
2017-08-15T10:15:34.846Z,-1.06
2017-08-15T10:16:34.975Z,6.81
2017-08-15T10:17:35.072Z,-3.98
2017-08-15T10:18:30.121Z,-3.98
2017-08-15T10:19:18.312Z,-3.98
2017-08-15T10:20:12.219Z,-3.98
2017-08-15T10:21:12.311Z,2.70
2017-08-15T10:22:06.379Z,2.70
2017-08-15T10:22:55.501Z,6.41
2017-08-15T10:23:44.610Z,-2.03
2017-08-15T10:24:38.648Z,-3.98
2017-08-15T10:25:32.722Z,-3.98
2017-08-15T10:26:27.808Z,5.54
2017-08-15T10:27:21.900Z,14.44
2017-08-15T10:28:16.001Z,-3.98
2017-08-15T10:29:16.999Z,7.65
2017-08-15T10:30:11.081Z,-3.98
2017-08-15T10:31:05.171Z,-2.44
2017-08-15T10:31:59.285Z,-2.44
2017-08-15T10:32:59.335Z,-3.82
2017-08-15T10:34:05.403Z,-3.99
2017-08-15T10:35:05.473Z,-3.99
2017-08-15T10:35:59.478Z,-3.98
2017-08-15T10:36:54.641Z,-3.98
2017-08-15T10:37:54.761Z,-3.99
2017-08-15T10:38:48.825Z,-3.99
2017-08-15T10:39:43.869Z,-3.99
2017-08-15T10:40:43.869Z,-3.99
2017-08-15T10:41:37.965Z,-3.99
2017-08-15T10:42:32.076Z,-3.99
2017-08-15T10:43:27.184Z,-3.99
2017-08-15T10:44:22.265Z,-4.00
2017-08-15T10:45:10.344Z,-4.00
2017-08-15T10:46:05.380Z,-3.99
2017-08-15T10:47:00.455Z,-4.00
2017-08-15T10:48:00.484Z,-4.01
2017-08-15T10:49:01.711Z,-4.01
2017-08-15T10:49:55.622Z,-4.01
2017-08-15T10:50:43.765Z,-4.01
2017-08-15T10:51:37.827Z,-4.01
2017-08-15T10:52:37.859Z,-4.01
2017-08-15T10:53:37.949Z,-4.02
2017-08-15T10:54:32.005Z,-4.01
2017-08-15T10:55:20.166Z,-4.02
2017-08-15T10:56:09.137Z,-4.02
2017-08-15T10:56:58.254Z,-4.02
2017-08-15T10:57:52.340Z,-4.03
2017-08-15T10:58:40.435Z,-4.03
2017-08-15T10:59:34.491Z,-4.03
2017-08-15T11:00:22.510Z,-4.02
2017-08-15T11:01:16.672Z,-4.03
2017-08-15T11:02:11.743Z,-4.03
2017-08-15T11:03:06.740Z,-4.03
2017-08-15T11:04:06.882Z,-4.03
2017-08-15T11:05:06.942Z,-4.03
2017-08-15T11:06:00.947Z,-4.03
2017-08-15T11:06:56.023Z,-4.03